Time,TemperatureF,DewpointF,PressureIn,WindDirection,WindDirectionDegrees,WindSpeedMPH,WindSpeedGustMPH,Humidity,HourlyPrecipIn,Conditions,Clouds,dailyrainin,SoftwareType,DateUTC
2013-12-16 00:02:00,36.4,33.7,30.26,NE,52,0.0,0.0,90,0.00,,,0.00,Wunderground v.1.15,2013-12-16 08:02:00,
2013-12-16 00:07:00,36.3,33.6,30.26,NE,52,0.0,0.0,90,0.00,,,0.00,Wunderground v.1.15,2013-12-16 08:07:00,
2013-12-16 00:13:00,36.3,33.6,30.26,NE,52,0.0,0.0,90,0.00,,,0.00,Wunderground v.1.15,2013-12-16 08:13:00,
2013-12-16 00:20:00,36.2,33.5,30.26,NE,52,0.0,0.0,90,0.00,,,0.00,Wunderground v.1.15,2013-12-16 08:20:00,
2013-12-16 00:25:00,36.1,33.5,30.26,NE,52,0.0,0.0,90,0.00,,,0.00,Wunderground v.1.15,2013-12-16 08:25:00,
2013-12-16 00:32:00,36.1,33.5,30.26,NE,52,0.0,0.0,90,0.00,,,0.00,Wunderground v.1.15,2013-12-16 08:32:00,
2013-12-16 00:37:00,36.1,33.5,30.26,NE,52,0.0,0.0,90,0.00,,,0.00,Wunderground v.1.15,2013-12-16 08:37:00,
2013-12-16 00:43:00,35.9,33.3,30.26,NE,52,0.0,0.0,90,0.00,,,0.00,Wunderground v.1.15,2013-12-16 08:43:00,
2013-12-16 00:49:00,35.8,33.2,30.26,NE,52,0.0,0.0,90,0.00,,,0.00,Wunderground v.1.15,2013-12-16 08:49:00,
2013-12-16 00:55:00,35.9,33.5,30.25,NE,52,0.0,0.0,91,0.00,,,0.00,Wunderground v.1.15,2013-12-16 08:55:00,
2013-12-16 01:02:00,35.8,33.2,30.25,NE,52,0.0,0.0,90,0.00,,,0.00,Wunderground v.1.15,2013-12-16 09:02:00,
2013-12-16 01:07:00,35.7,33.3,30.25,NE,52,0.0,0.0,91,0.00,,,0.00,Wunderground v.1.15,2013-12-16 09:07:00,
2013-12-16 01:13:00,35.6,33.0,30.25,NE,53,0.0,0.0,90,0.00,,,0.00,Wunderground v.1.15,2013-12-16 09:13:00,
2013-12-16 01:19:00,35.5,33.1,30.25,NE,53,0.0,0.0,91,0.00,,,0.00,Wunderground v.1.15,2013-12-16 09:19:00,
2013-12-16 01:25:00,35.4,33.0,30.25,NE,52,0.0,0.0,91,0.00,,,0.00,Wunderground v.1.15,2013-12-16 09:25:00,
2013-12-16 01:31:00,35.3,32.9,30.25,NE,53,0.0,0.0,91,0.00,,,0.00,Wunderground v.1.15,2013-12-16 09:31:00,
2013-12-16 01:37:00,35.6,33.5,30.25,NE,53,0.0,0.0,92,0.00,,,0.00,Wunderground v.1.15,2013-12-16 09:37:00,
2013-12-16 01:43:00,35.4,33.0,30.25,NE,53,0.0,0.0,91,0.00,,,0.00,Wunderground v.1.15,2013-12-16 09:43:00,
2013-12-16 01:49:00,35.2,32.8,30.25,NE,53,0.0,0.0,91,0.00,,,0.00,Wunderground v.1.15,2013-12-16 09:49:00,
2013-12-16 01:55:00,35.1,32.7,30.25,NE,53,0.0,0.0,91,0.00,,,0.00,Wunderground v.1.15,2013-12-16 09:55:00,
2013-12-16 02:02:00,34.8,32.4,30.25,NE,53,0.0,0.0,91,0.00,,,0.00,Wunderground v.1.15,2013-12-16 10:02:00,
2013-12-16 02:07:00,34.7,32.6,30.25,NE,52,0.0,1.0,92,0.00,,,0.00,Wunderground v.1.15,2013-12-16 10:07:00,
2013-12-16 02:13:00,34.6,32.5,30.25,NE,52,0.0,0.0,92,0.00,,,0.00,Wunderground v.1.15,2013-12-16 10:13:00,
2013-12-16 02:19:00,34.4,32.3,30.24,NE,52,0.0,0.0,92,0.00,,,0.00,Wunderground v.1.15,2013-12-16 10:19:00,
2013-12-16 02:25:00,34.3,32.2,30.24,NE,51,0.0,0.0,92,0.00,,,0.00,Wunderground v.1.15,2013-12-16 10:25:00,
2013-12-16 02:32:00,34.2,32.1,30.24,NE,51,0.0,0.0,92,0.00,,,0.00,Wunderground v.1.15,2013-12-16 10:32:00,
2013-12-16 02:37:00,34.0,31.9,30.24,NE,51,0.0,0.0,92,0.00,,,0.00,Wunderground v.1.15,2013-12-16 10:37:00,
2013-12-16 02:43:00,33.8,31.7,30.24,NE,51,0.0,0.0,92,0.00,,,0.00,Wunderground v.1.15,2013-12-16 10:43:00,
2013-12-16 02:49:00,33.7,31.6,30.24,NE,51,0.0,0.0,92,0.00,,,0.00,Wunderground v.1.15,2013-12-16 10:49:00,
2013-12-16 02:55:00,33.6,31.8,30.24,NE,51,0.0,0.0,93,0.00,,,0.00,Wunderground v.1.15,2013-12-16 10:55:00,
2013-12-16 03:02:00,33.7,31.9,30.24,NE,51,0.0,0.0,93,0.00,,,0.00,Wunderground v.1.15,2013-12-16 11:02:00,
2013-12-16 03:07:00,33.8,32.0,30.23,NE,51,0.0,0.0,93,0.00,,,0.00,Wunderground v.1.15,2013-12-16 11:07:00,
2013-12-16 03:13:00,33.7,31.9,30.23,NE,51,0.0,0.0,93,0.00,,,0.00,Wunderground v.1.15,2013-12-16 11:13:00,
2013-12-16 03:19:00,33.6,31.8,30.23,NE,51,0.0,0.0,93,0.00,,,0.00,Wunderground v.1.15,2013-12-16 11:19:00,
2013-12-16 03:25:00,33.4,31.6,30.23,NE,51,0.0,0.0,93,0.00,,,0.00,Wunderground v.1.15,2013-12-16 11:25:00,
2013-12-16 03:31:00,33.3,31.5,30.23,NE,51,0.0,0.0,93,0.00,,,0.00,Wunderground v.1.15,2013-12-16 11:31:00,
2013-12-16 03:37:00,33.3,31.5,30.23,NE,51,0.0,0.0,93,0.00,,,0.00,Wunderground v.1.15,2013-12-16 11:37:00,
2013-12-16 03:43:00,33.3,31.5,30.23,NE,51,0.0,0.0,93,0.00,,,0.00,Wunderground v.1.15,2013-12-16 11:43:00,
2013-12-16 03:49:00,33.2,31.4,30.22,NE,51,0.0,0.0,93,0.00,,,0.00,Wunderground v.1.15,2013-12-16 11:49:00,
2013-12-16 03:55:00,33.2,31.4,30.22,NE,51,0.0,0.0,93,0.00,,,0.00,Wunderground v.1.15,2013-12-16 11:55:00,
2013-12-16 04:02:00,33.2,31.4,30.22,NE,51,0.0,0.0,93,0.00,,,0.00,Wunderground v.1.15,2013-12-16 12:02:00,
2013-12-16 04:07:00,33.3,31.8,30.22,NE,51,0.0,0.0,94,0.00,,,0.00,Wunderground v.1.15,2013-12-16 12:07:00,
2013-12-16 04:13:00,33.3,31.8,30.22,NE,51,0.0,0.0,94,0.00,,,0.00,Wunderground v.1.15,2013-12-16 12:13:00,
2013-12-16 04:21:00,33.1,31.3,30.22,NE,51,0.0,0.0,93,0.00,,,0.00,Wunderground v.1.15,2013-12-16 12:21:00,
2013-12-16 04:27:00,32.9,31.1,30.22,NE,51,0.0,0.0,93,0.00,,,0.00,Wunderground v.1.15,2013-12-16 12:27:00,
2013-12-16 04:33:00,33.0,31.5,30.22,NE,51,0.0,0.0,94,0.00,,,0.00,Wunderground v.1.15,2013-12-16 12:33:00,
2013-12-16 04:39:00,33.1,31.6,30.22,NE,51,0.0,0.0,94,0.00,,,0.00,Wunderground v.1.15,2013-12-16 12:39:00,
2013-12-16 04:45:00,33.1,31.6,30.22,NE,51,0.0,0.0,94,0.00,,,0.00,Wunderground v.1.15,2013-12-16 12:45:00,
2013-12-16 04:51:00,33.1,31.6,30.21,NE,51,0.0,0.0,94,0.00,,,0.00,Wunderground v.1.15,2013-12-16 12:51:00,
2013-12-16 04:57:00,33.1,31.6,30.21,NE,51,0.0,0.0,94,0.00,,,0.00,Wunderground v.1.15,2013-12-16 12:57:00,
2013-12-16 05:03:00,33.0,31.5,30.21,NE,51,0.0,0.0,94,0.00,,,0.00,Wunderground v.1.15,2013-12-16 13:03:00,
2013-12-16 05:09:00,33.0,31.5,30.21,NE,51,0.0,0.0,94,0.00,,,0.00,Wunderground v.1.15,2013-12-16 13:09:00,
2013-12-16 05:15:00,33.0,31.5,30.21,NE,51,0.0,0.0,94,0.00,,,0.00,Wunderground v.1.15,2013-12-16 13:15:00,
2013-12-16 05:21:00,33.0,31.5,30.21,NE,51,0.0,0.0,94,0.00,,,0.00,Wunderground v.1.15,2013-12-16 13:21:00,
2013-12-16 05:27:00,32.9,31.4,30.22,NE,51,0.0,0.0,94,0.00,,,0.00,Wunderground v.1.15,2013-12-16 13:27:00,
2013-12-16 05:33:00,32.7,31.2,30.21,NE,51,0.0,0.0,94,0.00,,,0.00,Wunderground v.1.15,2013-12-16 13:33:00,
2013-12-16 05:39:00,32.8,31.5,30.21,NE,51,0.0,0.0,95,0.00,,,0.00,Wunderground v.1.15,2013-12-16 13:39:00,
2013-12-16 05:45:00,32.9,31.6,30.22,NE,51,0.0,0.0,95,0.00,,,0.00,Wunderground v.1.15,2013-12-16 13:45:00,
2013-12-16 05:51:00,33.0,31.7,30.22,NE,51,0.0,0.0,95,0.00,,,0.00,Wunderground v.1.15,2013-12-16 13:51:00,
2013-12-16 05:57:00,32.9,31.6,30.22,NE,51,0.0,0.0,95,0.00,,,0.00,Wunderground v.1.15,2013-12-16 13:57:00,
2013-12-16 06:03:00,33.0,31.7,30.22,NE,51,0.0,0.0,95,0.00,,,0.00,Wunderground v.1.15,2013-12-16 14:03:00,
2013-12-16 06:09:00,32.9,31.6,30.22,NE,51,0.0,0.0,95,0.00,,,0.00,Wunderground v.1.15,2013-12-16 14:09:00,
2013-12-16 06:15:00,32.8,31.5,30.22,NE,51,0.0,0.0,95,0.00,,,0.00,Wunderground v.1.15,2013-12-16 14:15:00,
2013-12-16 06:21:00,33.0,31.7,30.22,NE,51,0.0,0.0,95,0.00,,,0.00,Wunderground v.1.15,2013-12-16 14:21:00,
2013-12-16 06:27:00,32.8,31.5,30.22,NE,51,0.0,0.0,95,0.00,,,0.00,Wunderground v.1.15,2013-12-16 14:27:00,
2013-12-16 06:33:00,32.7,31.4,30.22,NE,51,0.0,0.0,95,0.00,,,0.00,Wunderground v.1.15,2013-12-16 14:33:00,
2013-12-16 06:39:00,32.5,31.2,30.22,NE,51,0.0,0.0,95,0.00,,,0.00,Wunderground v.1.15,2013-12-16 14:39:00,
2013-12-16 06:45:00,32.5,31.2,30.22,NE,51,0.0,0.0,95,0.00,,,0.00,Wunderground v.1.15,2013-12-16 14:45:00,
2013-12-16 06:52:00,32.3,31.0,30.22,NE,51,0.0,0.0,95,0.00,,,0.00,Wunderground v.1.15,2013-12-16 14:52:00,
2013-12-16 06:57:00,32.3,31.0,30.22,NE,51,0.0,0.0,95,0.00,,,0.00,Wunderground v.1.15,2013-12-16 14:57:00,
2013-12-16 07:03:00,32.2,30.9,30.22,NE,51,0.0,0.0,95,0.00,,,0.00,Wunderground v.1.15,2013-12-16 15:03:00,
2013-12-16 07:09:00,32.6,31.6,30.22,NE,51,0.0,1.0,96,0.00,,,0.00,Wunderground v.1.15,2013-12-16 15:09:00,
2013-12-16 07:15:00,32.8,31.8,30.22,NE,51,0.0,0.0,96,0.00,,,0.00,Wunderground v.1.15,2013-12-16 15:15:00,
2013-12-16 07:21:00,32.5,31.2,30.22,NE,51,0.0,0.0,95,0.00,,,0.00,Wunderground v.1.15,2013-12-16 15:21:00,
2013-12-16 07:27:00,32.4,31.1,30.22,NE,51,0.0,0.0,95,0.00,,,0.00,Wunderground v.1.15,2013-12-16 15:27:00,
2013-12-16 07:33:00,32.4,31.1,30.22,NE,51,0.0,0.0,95,0.00,,,0.00,Wunderground v.1.15,2013-12-16 15:33:00,
2013-12-16 07:39:00,32.4,31.1,30.23,NE,51,0.0,0.0,95,0.00,,,0.00,Wunderground v.1.15,2013-12-16 15:39:00,
2013-12-16 07:45:00,32.4,31.4,30.23,NE,51,0.0,0.0,96,0.00,,,0.00,Wunderground v.1.15,2013-12-16 15:45:00,
2013-12-16 07:51:00,32.5,31.5,30.23,NE,51,0.0,0.0,96,0.00,,,0.00,Wunderground v.1.15,2013-12-16 15:51:00,
2013-12-16 07:57:00,33.1,32.1,30.23,NE,51,0.0,0.0,96,0.00,,,0.00,Wunderground v.1.15,2013-12-16 15:57:00,
2013-12-16 08:03:00,33.4,32.4,30.23,NE,51,0.0,0.0,96,0.00,,,0.00,Wunderground v.1.15,2013-12-16 16:03:00,
2013-12-16 08:09:00,34.2,33.4,30.23,NE,51,0.0,0.0,97,0.00,,,0.00,Wunderground v.1.15,2013-12-16 16:09:00,
2013-12-16 08:15:00,34.6,33.8,30.23,NE,51,0.0,0.0,97,0.00,,,0.00,Wunderground v.1.15,2013-12-16 16:15:00,
2013-12-16 08:21:00,34.9,33.9,30.23,NE,51,0.0,0.0,96,0.00,,,0.00,Wunderground v.1.15,2013-12-16 16:21:00,
2013-12-16 08:27:00,35.5,34.5,30.23,NE,51,0.0,0.0,96,0.00,,,0.00,Wunderground v.1.15,2013-12-16 16:27:00,
2013-12-16 08:33:00,36.0,35.0,30.23,NE,51,0.0,0.0,96,0.00,,,0.00,Wunderground v.1.15,2013-12-16 16:33:00,
2013-12-16 08:39:00,36.9,35.9,30.24,NE,51,0.0,0.0,96,0.00,,,0.00,Wunderground v.1.15,2013-12-16 16:39:00,
2013-12-16 08:45:00,37.9,36.9,30.24,NE,51,0.0,0.0,96,0.00,,,0.00,Wunderground v.1.15,2013-12-16 16:45:00,
2013-12-16 08:52:00,39.4,38.4,30.24,NE,51,0.0,0.0,96,0.00,,,0.00,Wunderground v.1.15,2013-12-16 16:52:00,
2013-12-16 08:57:00,40.9,38.5,30.24,NE,46,0.0,0.0,91,0.00,,,0.00,Wunderground v.1.15,2013-12-16 16:57:00,
2013-12-16 09:03:00,41.5,38.5,30.24,NE,35,0.0,0.0,89,0.00,,,0.00,Wunderground v.1.15,2013-12-16 17:03:00,
2013-12-16 09:09:00,42.0,38.1,30.24,North,356,0.0,0.0,86,0.00,,,0.00,Wunderground v.1.15,2013-12-16 17:09:00,
2013-12-16 09:15:00,42.6,38.1,30.24,North,357,0.0,0.0,84,0.00,,,0.00,Wunderground v.1.15,2013-12-16 17:15:00,
2013-12-16 09:21:00,43.7,38.6,30.25,North,1,0.0,0.0,82,0.00,,,0.00,Wunderground v.1.15,2013-12-16 17:21:00,
2013-12-16 09:27:00,44.4,38.9,30.24,North,358,0.0,1.0,81,0.00,,,0.00,Wunderground v.1.15,2013-12-16 17:27:00,
2013-12-16 09:33:00,45.0,38.9,30.24,NNW,346,0.0,1.0,79,0.00,,,0.00,Wunderground v.1.15,2013-12-16 17:33:00,
2013-12-16 09:39:00,45.7,39.2,30.25,NNW,346,0.0,1.0,78,0.00,,,0.00,Wunderground v.1.15,2013-12-16 17:39:00,
2013-12-16 09:45:00,45.9,38.8,30.25,NW,307,0.0,0.0,76,0.00,,,0.00,Wunderground v.1.15,2013-12-16 17:45:00,
2013-12-16 09:51:00,46.3,38.8,30.25,North,349,0.0,0.0,75,0.00,,,0.00,Wunderground v.1.15,2013-12-16 17:51:00,
2013-12-16 09:57:00,46.7,39.2,30.24,North,349,0.0,0.0,75,0.00,,,0.00,Wunderground v.1.15,2013-12-16 17:57:00,
2013-12-16 10:03:00,47.1,39.2,30.25,East,100,0.0,0.0,74,0.00,,,0.00,Wunderground v.1.15,2013-12-16 18:03:00,
2013-12-16 10:09:00,47.7,39.1,30.24,NNW,338,0.0,0.0,72,0.00,,,0.00,Wunderground v.1.15,2013-12-16 18:09:00,
2013-12-16 10:15:00,48.7,39.0,30.24,NNW,339,0.0,0.0,69,0.00,,,0.00,Wunderground v.1.15,2013-12-16 18:15:00,
2013-12-16 10:21:00,49.2,39.1,30.24,NNW,347,0.0,0.0,68,0.00,,,0.00,Wunderground v.1.15,2013-12-16 18:21:00,
2013-12-16 10:27:00,49.9,38.6,30.24,NNW,329,0.0,1.0,65,0.00,,,0.00,Wunderground v.1.15,2013-12-16 18:27:00,
2013-12-16 10:33:00,50.6,38.9,30.24,NW,315,1.0,1.0,64,0.00,,,0.00,Wunderground v.1.15,2013-12-16 18:33:00,
2013-12-16 10:39:00,51.2,39.8,30.24,NW,325,1.0,1.0,65,0.00,,,0.00,Wunderground v.1.15,2013-12-16 18:39:00,
2013-12-16 10:45:00,51.9,39.7,30.24,NNW,328,1.0,2.0,63,0.00,,,0.00,Wunderground v.1.15,2013-12-16 18:45:00,
2013-12-16 10:51:00,52.5,39.8,30.23,NW,309,0.0,2.0,62,0.00,,,0.00,Wunderground v.1.15,2013-12-16 18:51:00,
2013-12-16 10:57:00,53.3,40.2,30.23,NNW,346,1.0,1.0,61,0.00,,,0.00,Wunderground v.1.15,2013-12-16 18:57:00,
2013-12-16 11:03:00,54.1,40.1,30.22,NNW,331,1.0,2.0,59,0.00,,,0.00,Wunderground v.1.15,2013-12-16 19:03:00,
2013-12-16 11:09:00,54.7,40.2,30.22,SSW,212,1.0,2.0,58,0.00,,,0.00,Wunderground v.1.15,2013-12-16 19:09:00,
2013-12-16 11:15:00,55.4,40.0,30.22,NW,309,0.0,1.0,56,0.00,,,0.00,Wunderground v.1.15,2013-12-16 19:15:00,
2013-12-16 11:21:00,56.2,39.8,30.21,North,1,1.0,1.0,54,0.00,,,0.00,Wunderground v.1.15,2013-12-16 19:21:00,
2013-12-16 11:27:00,57.1,39.6,30.20,NNW,330,1.0,2.0,52,0.00,,,0.00,Wunderground v.1.15,2013-12-16 19:27:00,
2013-12-16 11:33:00,58.2,39.1,30.20,NW,326,1.0,1.0,49,0.00,,,0.00,Wunderground v.1.15,2013-12-16 19:33:00,
2013-12-16 11:39:00,59.0,39.3,30.20,NNW,343,1.0,1.0,48,0.00,,,0.00,Wunderground v.1.15,2013-12-16 19:39:00,
2013-12-16 11:45:00,59.4,38.6,30.19,ESE,105,1.0,2.0,46,0.00,,,0.00,Wunderground v.1.15,2013-12-16 19:45:00,
2013-12-16 11:52:00,59.8,39.0,30.19,NW,326,1.0,1.0,46,0.00,,,0.00,Wunderground v.1.15,2013-12-16 19:52:00,
2013-12-16 11:57:00,60.5,39.6,30.19,WNW,283,1.0,1.0,46,0.00,,,0.00,Wunderground v.1.15,2013-12-16 19:57:00,
2013-12-16 12:03:00,61.2,38.5,30.19,WNW,297,1.0,1.0,43,0.00,,,0.00,Wunderground v.1.15,2013-12-16 20:03:00,
2013-12-16 12:09:00,61.4,39.3,30.18,NW,325,1.0,2.0,44,0.00,,,0.00,Wunderground v.1.15,2013-12-16 20:09:00,
2013-12-16 12:15:00,61.9,38.5,30.18,NNW,334,1.0,4.0,42,0.00,,,0.00,Wunderground v.1.15,2013-12-16 20:15:00,
2013-12-16 12:22:00,62.6,38.6,30.17,SE,126,2.0,2.0,41,0.00,,,0.00,Wunderground v.1.15,2013-12-16 20:22:00,
2013-12-16 12:27:00,63.0,37.6,30.17,NE,44,2.0,3.0,39,0.00,,,0.00,Wunderground v.1.15,2013-12-16 20:27:00,
2013-12-16 12:33:00,63.4,38.0,30.17,NE,37,2.0,3.0,39,0.00,,,0.00,Wunderground v.1.15,2013-12-16 20:33:00,
2013-12-16 12:39:00,63.6,37.5,30.17,NNW,329,2.0,3.0,38,0.00,,,0.00,Wunderground v.1.15,2013-12-16 20:39:00,
2013-12-16 12:45:00,64.0,37.9,30.17,NNE,22,2.0,2.0,38,0.00,,,0.00,Wunderground v.1.15,2013-12-16 20:45:00,
2013-12-16 12:52:00,64.4,36.8,30.16,NW,317,2.0,2.0,36,0.00,,,0.00,Wunderground v.1.15,2013-12-16 20:52:00,
2013-12-16 12:57:00,64.7,37.1,30.16,ENE,77,1.0,2.0,36,0.00,,,0.00,Wunderground v.1.15,2013-12-16 20:57:00,
2013-12-16 13:03:00,65.1,36.0,30.16,NNW,343,1.0,3.0,34,0.00,,,0.00,Wunderground v.1.15,2013-12-16 21:03:00,
2013-12-16 13:09:00,65.3,35.4,30.16,NW,323,2.0,3.0,33,0.00,,,0.00,Wunderground v.1.15,2013-12-16 21:09:00,
2013-12-16 13:15:00,65.2,35.4,30.16,NNW,342,2.0,5.0,33,0.00,,,0.00,Wunderground v.1.15,2013-12-16 21:15:00,
2013-12-16 13:22:00,65.8,35.1,30.16,NNW,340,2.0,3.0,32,0.00,,,0.00,Wunderground v.1.15,2013-12-16 21:22:00,
2013-12-16 13:27:00,65.9,35.2,30.15,NW,305,2.0,3.0,32,0.00,,,0.00,Wunderground v.1.15,2013-12-16 21:27:00,
2013-12-16 13:33:00,66.3,35.5,30.15,West,259,1.0,2.0,32,0.00,,,0.00,Wunderground v.1.15,2013-12-16 21:33:00,
2013-12-16 13:39:00,66.2,33.8,30.15,WSW,254,2.0,3.0,30,0.00,,,0.00,Wunderground v.1.15,2013-12-16 21:39:00,
2013-12-16 13:45:00,66.2,34.7,30.15,NNW,335,2.0,3.0,31,0.00,,,0.00,Wunderground v.1.15,2013-12-16 21:45:00,
2013-12-16 13:52:00,66.4,34.8,30.15,NNW,330,1.0,2.0,31,0.00,,,0.00,Wunderground v.1.15,2013-12-16 21:52:00,
2013-12-16 13:57:00,66.3,35.5,30.14,WSW,239,1.0,2.0,32,0.00,,,0.00,Wunderground v.1.15,2013-12-16 21:57:00,
2013-12-16 14:03:00,66.8,35.2,30.14,North,355,1.0,2.0,31,0.00,,,0.00,Wunderground v.1.15,2013-12-16 22:03:00,
2013-12-16 14:09:00,66.4,34.0,30.14,NW,320,1.0,5.0,30,0.00,,,0.00,Wunderground v.1.15,2013-12-16 22:09:00,
2013-12-16 14:15:00,66.2,34.7,30.14,NW,314,2.0,3.0,31,0.00,,,0.00,Wunderground v.1.15,2013-12-16 22:15:00,
2013-12-16 14:22:00,66.0,34.5,30.14,NNW,330,2.0,2.0,31,0.00,,,0.00,Wunderground v.1.15,2013-12-16 22:22:00,
2013-12-16 14:27:00,66.4,35.6,30.14,WNW,288,1.0,2.0,32,0.00,,,0.00,Wunderground v.1.15,2013-12-16 22:27:00,
2013-12-16 14:33:00,66.4,34.8,30.14,WSW,240,1.0,2.0,31,0.00,,,0.00,Wunderground v.1.15,2013-12-16 22:33:00,
2013-12-16 14:39:00,66.0,34.5,30.14,NW,326,1.0,3.0,31,0.00,,,0.00,Wunderground v.1.15,2013-12-16 22:39:00,
2013-12-16 14:45:00,65.7,35.0,30.13,WSW,257,2.0,3.0,32,0.00,,,0.00,Wunderground v.1.15,2013-12-16 22:45:00,
2013-12-16 14:52:00,65.7,35.8,30.13,West,269,1.0,1.0,33,0.00,,,0.00,Wunderground v.1.15,2013-12-16 22:52:00,
2013-12-16 14:57:00,65.6,34.9,30.14,NW,316,1.0,3.0,32,0.00,,,0.00,Wunderground v.1.15,2013-12-16 22:57:00,
2013-12-16 15:03:00,65.1,34.5,30.13,WNW,300,2.0,2.0,32,0.00,,,0.00,Wunderground v.1.15,2013-12-16 23:03:00,
2013-12-16 15:09:00,64.9,35.1,30.14,WNW,301,2.0,2.0,33,0.00,,,0.00,Wunderground v.1.15,2013-12-16 23:09:00,
2013-12-16 15:15:00,65.0,35.2,30.14,NW,324,2.0,3.0,33,0.00,,,0.00,Wunderground v.1.15,2013-12-16 23:15:00,
2013-12-16 15:22:00,65.3,34.7,30.14,NNW,330,1.0,2.0,32,0.00,,,0.00,Wunderground v.1.15,2013-12-16 23:22:00,
2013-12-16 15:27:00,65.0,35.9,30.14,NW,319,2.0,3.0,34,0.00,,,0.00,Wunderground v.1.15,2013-12-16 23:27:00,
2013-12-16 15:33:00,65.2,35.4,30.14,NW,313,1.0,2.0,33,0.00,,,0.00,Wunderground v.1.15,2013-12-16 23:33:00,
2013-12-16 15:39:00,64.8,35.0,30.14,NW,314,2.0,2.0,33,0.00,,,0.00,Wunderground v.1.15,2013-12-16 23:39:00,
2013-12-16 15:45:00,64.6,34.8,30.14,NNW,337,2.0,2.0,33,0.00,,,0.00,Wunderground v.1.15,2013-12-16 23:45:00,
2013-12-16 15:51:00,64.0,35.0,30.14,NNW,329,1.0,1.0,34,0.00,,,0.00,Wunderground v.1.15,2013-12-16 23:51:00,
2013-12-16 15:57:00,63.5,35.3,30.14,NNW,328,1.0,1.0,35,0.00,,,0.00,Wunderground v.1.15,2013-12-16 23:57:00,
2013-12-16 16:03:00,62.9,34.8,30.14,NW,321,1.0,1.0,35,0.00,,,0.00,Wunderground v.1.15,2013-12-17 00:03:00,
2013-12-16 16:09:00,62.3,35.7,30.14,NW,322,0.0,1.0,37,0.00,,,0.00,Wunderground v.1.15,2013-12-17 00:09:00,
2013-12-16 16:15:00,61.6,35.1,30.14,NW,322,0.0,0.0,37,0.00,,,0.00,Wunderground v.1.15,2013-12-17 00:15:00,
2013-12-16 16:21:00,61.0,35.2,30.14,NNW,331,0.0,0.0,38,0.00,,,0.00,Wunderground v.1.15,2013-12-17 00:21:00,
2013-12-16 16:27:00,60.4,35.3,30.14,NNW,330,0.0,0.0,39,0.00,,,0.00,Wunderground v.1.15,2013-12-17 00:27:00,
2013-12-16 16:33:00,59.7,35.3,30.14,NNW,330,0.0,0.0,40,0.00,,,0.00,Wunderground v.1.15,2013-12-17 00:33:00,
2013-12-16 16:39:00,58.9,35.8,30.14,NNW,330,0.0,0.0,42,0.00,,,0.00,Wunderground v.1.15,2013-12-17 00:39:00,
2013-12-16 16:45:00,58.3,35.9,30.14,NNW,330,0.0,0.0,43,0.00,,,0.00,Wunderground v.1.15,2013-12-17 00:45:00,
2013-12-16 16:51:00,57.7,35.9,30.14,NNW,330,0.0,0.0,44,0.00,,,0.00,Wunderground v.1.15,2013-12-17 00:51:00,
2013-12-16 16:57:00,56.9,36.3,30.14,NNW,330,0.0,0.0,46,0.00,,,0.00,Wunderground v.1.15,2013-12-17 00:57:00,
2013-12-16 17:03:00,56.3,36.3,30.14,NNW,330,0.0,0.0,47,0.00,,,0.00,Wunderground v.1.15,2013-12-17 01:03:00,
2013-12-16 17:09:00,55.6,35.7,30.15,NNW,330,0.0,0.0,47,0.00,,,0.00,Wunderground v.1.15,2013-12-17 01:09:00,
2013-12-16 17:16:00,55.0,35.7,30.15,NNW,330,0.0,0.0,48,0.00,,,0.00,Wunderground v.1.15,2013-12-17 01:16:00,
2013-12-16 17:21:00,54.5,35.7,30.15,NNW,330,0.0,0.0,49,0.00,,,0.00,Wunderground v.1.15,2013-12-17 01:21:00,
2013-12-16 17:27:00,54.1,35.9,30.15,NNW,330,0.0,0.0,50,0.00,,,0.00,Wunderground v.1.15,2013-12-17 01:27:00,
2013-12-16 17:33:00,53.8,36.1,30.15,NNW,330,0.0,0.0,51,0.00,,,0.00,Wunderground v.1.15,2013-12-17 01:33:00,
2013-12-16 17:39:00,53.9,36.2,30.15,South,173,0.0,1.0,51,0.00,,,0.00,Wunderground v.1.15,2013-12-17 01:39:00,
2013-12-16 17:43:00,53.9,36.2,30.15,South,173,0.0,0.0,51,0.00,,,0.00,Wunderground v.1.15,2013-12-17 01:43:00,
2013-12-16 17:49:00,53.8,36.1,30.15,South,173,0.0,0.0,51,0.00,,,0.00,Wunderground v.1.15,2013-12-17 01:49:00,
2013-12-16 17:55:00,53.6,35.9,30.15,South,173,0.0,0.0,51,0.00,,,0.00,Wunderground v.1.15,2013-12-17 01:55:00,
2013-12-16 18:02:00,52.7,36.5,30.15,South,173,0.0,0.0,54,0.00,,,0.00,Wunderground v.1.15,2013-12-17 02:02:00,
2013-12-16 18:07:00,51.8,36.1,30.15,South,173,0.0,0.0,55,0.00,,,0.00,Wunderground v.1.15,2013-12-17 02:07:00,
2013-12-16 18:13:00,50.9,35.7,30.15,South,173,0.0,0.0,56,0.00,,,0.00,Wunderground v.1.15,2013-12-17 02:13:00,
2013-12-16 18:19:00,50.1,36.3,30.15,South,173,0.0,0.0,59,0.00,,,0.00,Wunderground v.1.15,2013-12-17 02:19:00,
2013-12-16 18:25:00,49.8,36.5,30.15,South,173,0.0,0.0,60,0.00,,,0.00,Wunderground v.1.15,2013-12-17 02:25:00,
2013-12-16 18:31:00,49.6,36.3,30.15,South,173,0.0,0.0,60,0.00,,,0.00,Wunderground v.1.15,2013-12-17 02:31:00,
2013-12-16 18:37:00,49.0,36.5,30.15,South,172,0.0,0.0,62,0.00,,,0.00,Wunderground v.1.15,2013-12-17 02:37:00,
2013-12-16 18:43:00,48.5,36.5,30.16,South,172,0.0,0.0,63,0.00,,,0.00,Wunderground v.1.15,2013-12-17 02:43:00,
2013-12-16 18:49:00,47.7,36.5,30.16,South,172,0.0,0.0,65,0.00,,,0.00,Wunderground v.1.15,2013-12-17 02:49:00,
2013-12-16 18:55:00,47.4,37.0,30.16,South,172,0.0,0.0,67,0.00,,,0.00,Wunderground v.1.15,2013-12-17 02:55:00,
2013-12-16 19:02:00,46.9,36.5,30.16,South,172,0.0,0.0,67,0.00,,,0.00,Wunderground v.1.15,2013-12-17 03:02:00,
2013-12-16 19:07:00,46.5,36.9,30.16,South,172,0.0,0.0,69,0.00,,,0.00,Wunderground v.1.15,2013-12-17 03:07:00,
2013-12-16 19:13:00,46.2,36.6,30.16,South,172,0.0,0.0,69,0.00,,,0.00,Wunderground v.1.15,2013-12-17 03:13:00,
2013-12-16 19:19:00,45.8,36.6,30.16,South,172,0.0,0.0,70,0.00,,,0.00,Wunderground v.1.15,2013-12-17 03:19:00,
2013-12-16 19:25:00,45.6,36.7,30.16,South,172,0.0,0.0,71,0.00,,,0.00,Wunderground v.1.15,2013-12-17 03:25:00,
2013-12-16 19:31:00,45.5,36.6,30.16,South,172,0.0,0.0,71,0.00,,,0.00,Wunderground v.1.15,2013-12-17 03:31:00,
2013-12-16 19:38:00,45.3,36.4,30.16,South,172,0.0,0.0,71,0.00,,,0.00,Wunderground v.1.15,2013-12-17 03:38:00,
2013-12-16 19:43:00,45.2,36.7,30.16,South,172,0.0,0.0,72,0.00,,,0.00,Wunderground v.1.15,2013-12-17 03:43:00,
2013-12-16 19:49:00,44.9,36.8,30.16,South,172,0.0,0.0,73,0.00,,,0.00,Wunderground v.1.15,2013-12-17 03:49:00,
2013-12-16 19:56:00,44.5,36.7,30.16,South,172,0.0,0.0,74,0.00,,,0.00,Wunderground v.1.15,2013-12-17 03:56:00,
2013-12-16 20:02:00,44.1,36.3,30.16,South,172,0.0,0.0,74,0.00,,,0.00,Wunderground v.1.15,2013-12-17 04:02:00,
2013-12-16 20:07:00,44.0,36.6,30.16,South,172,0.0,0.0,75,0.00,,,0.00,Wunderground v.1.15,2013-12-17 04:07:00,
2013-12-16 20:13:00,43.8,36.4,30.16,South,172,0.0,0.0,75,0.00,,,0.00,Wunderground v.1.15,2013-12-17 04:13:00,
2013-12-16 20:19:00,43.5,36.4,30.16,South,172,0.0,0.0,76,0.00,,,0.00,Wunderground v.1.15,2013-12-17 04:19:00,
2013-12-16 20:25:00,43.2,36.1,30.16,South,172,0.0,0.0,76,0.00,,,0.00,Wunderground v.1.15,2013-12-17 04:25:00,
2013-12-16 20:31:00,42.8,36.1,30.16,South,172,0.0,0.0,77,0.00,,,0.00,Wunderground v.1.15,2013-12-17 04:31:00,
2013-12-16 20:37:00,42.5,36.1,30.17,South,172,0.0,0.0,78,0.00,,,0.00,Wunderground v.1.15,2013-12-17 04:37:00,
2013-12-16 20:44:00,42.0,36.0,30.16,South,172,0.0,0.0,79,0.00,,,0.00,Wunderground v.1.15,2013-12-17 04:44:00,
2013-12-16 20:49:00,42.0,36.3,30.17,South,172,0.0,0.0,80,0.00,,,0.00,Wunderground v.1.15,2013-12-17 04:49:00,
2013-12-16 20:55:00,42.0,36.0,30.17,South,172,0.0,0.0,79,0.00,,,0.00,Wunderground v.1.15,2013-12-17 04:55:00,
2013-12-16 21:02:00,41.7,36.0,30.17,South,172,0.0,0.0,80,0.00,,,0.00,Wunderground v.1.15,2013-12-17 05:02:00,
2013-12-16 21:04:00,41.6,35.9,30.17,South,172,0.0,0.0,80,0.00,,,0.00,Wunderground v.1.15,2013-12-17 05:04:00,
2013-12-16 21:05:00,41.5,35.8,30.17,South,172,0.0,0.0,80,0.00,,,0.00,Wunderground v.1.15,2013-12-17 05:05:00,
2013-12-16 21:09:00,41.2,35.8,30.17,South,172,0.0,0.0,81,0.00,,,0.00,Wunderground v.1.15,2013-12-17 05:09:00,
2013-12-16 21:12:00,41.2,36.1,30.17,South,172,0.0,0.0,82,0.00,,,0.00,Wunderground v.1.15,2013-12-17 05:12:00,
2013-12-16 21:13:00,41.2,36.1,30.17,South,172,0.0,0.0,82,0.00,,,0.00,Wunderground v.1.15,2013-12-17 05:13:00,
2013-12-16 21:19:00,41.0,35.9,30.17,South,172,0.0,0.0,82,0.00,,,0.00,Wunderground v.1.15,2013-12-17 05:19:00,
2013-12-16 21:25:00,40.7,35.6,30.17,South,172,0.0,0.0,82,0.00,,,0.00,Wunderground v.1.15,2013-12-17 05:25:00,
2013-12-16 21:32:00,40.6,35.8,30.17,South,172,0.0,0.0,83,0.00,,,0.00,Wunderground v.1.15,2013-12-17 05:32:00,
2013-12-16 21:37:00,40.5,35.7,30.17,South,172,0.0,0.0,83,0.00,,,0.00,Wunderground v.1.15,2013-12-17 05:37:00,
2013-12-16 21:43:00,40.3,35.8,30.17,South,172,0.0,0.0,84,0.00,,,0.00,Wunderground v.1.15,2013-12-17 05:43:00,
2013-12-16 21:49:00,40.1,35.7,30.17,South,172,0.0,0.0,84,0.00,,,0.00,Wunderground v.1.15,2013-12-17 05:49:00,
2013-12-16 21:55:00,39.9,35.5,30.17,South,172,0.0,0.0,84,0.00,,,0.00,Wunderground v.1.15,2013-12-17 05:55:00,
2013-12-16 22:02:00,39.7,35.3,30.18,South,172,0.0,0.0,84,0.00,,,0.00,Wunderground v.1.15,2013-12-17 06:02:00,
2013-12-16 22:07:00,39.8,35.7,30.18,South,172,0.0,0.0,85,0.00,,,0.00,Wunderground v.1.15,2013-12-17 06:07:00,
2013-12-16 22:14:00,39.6,35.2,30.18,South,172,0.0,0.0,84,0.00,,,0.00,Wunderground v.1.15,2013-12-17 06:14:00,
2013-12-16 22:19:00,39.3,35.2,30.18,South,172,0.0,0.0,85,0.00,,,0.00,Wunderground v.1.15,2013-12-17 06:19:00,
2013-12-16 22:25:00,39.1,35.3,30.18,South,172,0.0,0.0,86,0.00,,,0.00,Wunderground v.1.15,2013-12-17 06:25:00,
2013-12-16 22:32:00,39.2,35.7,30.17,South,172,0.0,0.0,87,0.00,,,0.00,Wunderground v.1.15,2013-12-17 06:32:00,
2013-12-16 22:37:00,39.2,35.7,30.18,South,172,0.0,0.0,87,0.00,,,0.00,Wunderground v.1.15,2013-12-17 06:37:00,
2013-12-16 22:43:00,39.0,35.2,30.18,South,172,0.0,0.0,86,0.00,,,0.00,Wunderground v.1.15,2013-12-17 06:43:00,
2013-12-16 22:49:00,38.8,35.3,30.18,South,172,0.0,0.0,87,0.00,,,0.00,Wunderground v.1.15,2013-12-17 06:49:00,
2013-12-16 22:55:00,38.7,35.2,30.18,South,172,0.0,0.0,87,0.00,,,0.00,Wunderground v.1.15,2013-12-17 06:55:00,
2013-12-16 23:03:00,38.8,35.3,30.18,South,172,0.0,0.0,87,0.00,,,0.00,Wunderground v.1.15,2013-12-17 07:03:00,
2013-12-16 23:09:00,38.8,35.3,30.18,South,172,0.0,0.0,87,0.00,,,0.00,Wunderground v.1.15,2013-12-17 07:09:00,
2013-12-16 23:15:00,38.8,35.3,30.18,South,172,0.0,0.0,87,0.00,,,0.00,Wunderground v.1.15,2013-12-17 07:15:00,
2013-12-16 23:21:00,38.6,34.8,30.18,South,172,0.0,0.0,86,0.00,,,0.00,Wunderground v.1.15,2013-12-17 07:21:00,
2013-12-16 23:27:00,38.3,34.8,30.18,South,172,0.0,0.0,87,0.00,,,0.00,Wunderground v.1.15,2013-12-17 07:27:00,
2013-12-16 23:33:00,38.2,34.7,30.18,South,172,0.0,0.0,87,0.00,,,0.00,Wunderground v.1.15,2013-12-17 07:33:00,
2013-12-16 23:39:00,38.0,34.8,30.17,South,172,0.0,0.0,88,0.00,,,0.00,Wunderground v.1.15,2013-12-17 07:39:00,
2013-12-16 23:45:00,37.8,34.6,30.17,South,172,0.0,0.0,88,0.00,,,0.00,Wunderground v.1.15,2013-12-17 07:45:00,
2013-12-16 23:51:00,37.7,34.5,30.17,South,172,0.0,0.0,88,0.00,,,0.00,Wunderground v.1.15,2013-12-17 07:51:00,
2013-12-16 23:58:00,37.4,34.2,30.17,South,172,0.0,0.0,88,0.00,,,0.00,Wunderground v.1.15,2013-12-17 07:58:00,